createdAt,value
2022-09-27T00:02:26.729Z,2.58
2022-09-27T00:04:53.868Z,2.47
2022-09-27T00:07:22.288Z,2.05
2022-09-27T00:09:49.402Z,2.97
2022-09-27T00:12:16.480Z,2.25
2022-09-27T00:14:43.548Z,2.60
2022-09-27T00:17:10.915Z,3.28
2022-09-27T00:19:37.988Z,2.35
2022-09-27T00:22:05.069Z,2.95
2022-09-27T00:24:33.561Z,2.55
2022-09-27T00:27:00.723Z,2.50
2022-09-27T00:29:28.937Z,1.90
2022-09-27T00:31:56.092Z,2.40
2022-09-27T00:34:25.385Z,2.00
2022-09-27T00:36:53.155Z,2.75
2022-09-27T00:39:20.357Z,2.22
2022-09-27T00:41:48.804Z,2.50
2022-09-27T00:44:53.994Z,2.53
2022-09-27T00:47:27.508Z,3.38
2022-09-27T00:50:00.126Z,2.20
2022-09-27T00:52:32.571Z,2.05
2022-09-27T00:55:04.576Z,2.20
2022-09-27T00:57:33.372Z,2.50
2022-09-27T01:03:20.927Z,2.72
2022-09-27T01:05:48.510Z,3.03
2022-09-27T01:08:15.579Z,3.20
2022-09-27T01:10:53.548Z,3.08
2022-09-27T01:13:27.010Z,2.65
2022-09-27T01:16:03.981Z,2.40
2022-09-27T01:18:39.026Z,2.10
2022-09-27T01:21:28.601Z,2.53
2022-09-27T01:24:17.523Z,2.85
2022-09-27T01:27:15.652Z,2.35
2022-09-27T01:30:00.822Z,2.45
2022-09-27T01:32:35.228Z,3.03
2022-09-27T01:35:07.170Z,2.25
2022-09-27T01:37:41.137Z,1.80
2022-09-27T01:40:17.652Z,1.92
2022-09-27T01:42:50.140Z,1.92
2022-09-27T01:45:22.760Z,1.98
2022-09-27T01:47:53.761Z,2.53
2022-09-27T01:50:26.252Z,2.30
2022-09-27T01:52:57.163Z,2.10
2022-09-27T01:55:29.758Z,2.15
2022-09-27T01:58:01.176Z,2.58
2022-09-27T02:00:28.678Z,3.13
2022-09-27T02:03:01.780Z,1.70
2022-09-27T02:05:32.921Z,2.70
2022-09-27T02:08:05.202Z,2.65
2022-09-27T02:10:37.540Z,2.17
2022-09-27T02:13:12.936Z,2.22
2022-09-27T02:15:49.739Z,1.88
2022-09-27T02:18:24.415Z,2.85
2022-09-27T02:20:56.374Z,1.63
2022-09-27T02:23:29.813Z,1.90
2022-09-27T02:25:58.695Z,2.05
2022-09-27T02:28:30.826Z,2.72
2022-09-27T02:30:58.198Z,2.25
2022-09-27T02:33:30.180Z,1.92
2022-09-27T02:35:57.282Z,2.10
2022-09-27T02:38:24.645Z,2.38
2022-09-27T02:40:51.755Z,1.90
2022-09-27T02:43:21.277Z,1.58
2022-09-27T02:46:11.473Z,3.08
2022-09-27T02:48:51.604Z,2.38
2022-09-27T02:51:34.024Z,1.50
2022-09-27T02:54:11.975Z,1.90
2022-09-27T02:56:48.524Z,2.10
2022-09-27T02:59:25.870Z,2.63
2022-09-27T03:02:12.601Z,2.17
2022-09-27T03:04:46.989Z,1.70
2022-09-27T03:07:15.297Z,1.83
2022-09-27T03:09:45.128Z,2.10
2022-09-27T03:12:12.667Z,1.38
2022-09-27T03:14:39.772Z,2.67
2022-09-27T03:17:07.089Z,2.15
2022-09-27T03:19:34.191Z,1.98
2022-09-27T03:22:02.623Z,1.77
2022-09-27T03:24:29.784Z,1.00
2022-09-27T03:26:56.880Z,1.77
2022-09-27T03:29:23.994Z,1.85
2022-09-27T03:31:51.114Z,2.28
2022-09-27T03:34:18.210Z,3.50
2022-09-27T03:36:45.302Z,1.88
2022-09-27T03:39:13.812Z,2.50
2022-09-27T03:41:41.011Z,2.72
2022-09-27T03:44:08.407Z,1.92
2022-09-27T03:46:35.537Z,2.40
2022-09-27T03:49:02.888Z,2.88
2022-09-27T03:51:30.042Z,2.90
2022-09-27T03:53:57.206Z,3.15
2022-09-27T03:56:25.636Z,3.05
2022-09-27T03:58:52.731Z,1.50
2022-09-27T04:01:20.196Z,1.80
2022-09-27T04:03:47.387Z,1.55
2022-09-27T04:06:14.447Z,1.98
2022-09-27T04:08:41.519Z,2.83
2022-09-27T04:11:08.771Z,1.80
2022-09-27T04:13:37.214Z,2.38
2022-09-27T04:16:04.670Z,2.65
2022-09-27T04:18:31.919Z,1.70
2022-09-27T04:20:59.006Z,2.45
2022-09-27T04:23:29.796Z,1.17
2022-09-27T04:25:57.331Z,2.83
2022-09-27T04:28:24.448Z,1.85
2022-09-27T04:30:52.878Z,2.10
2022-09-27T04:33:19.980Z,2.28
2022-09-27T04:35:47.233Z,2.08
2022-09-27T04:38:14.328Z,1.77
2022-09-27T04:40:41.546Z,4.18
2022-09-27T04:43:08.711Z,3.10
2022-09-27T04:45:35.791Z,2.25
2022-09-27T04:48:04.390Z,3.53
2022-09-27T04:50:34.528Z,2.22
2022-09-27T04:53:03.990Z,3.05
2022-09-27T04:55:31.062Z,3.28
2022-09-27T04:57:58.161Z,1.60
2022-09-27T05:00:25.244Z,3.03
2022-09-27T05:02:52.442Z,2.22
2022-09-27T05:05:21.071Z,2.47
2022-09-27T05:07:48.139Z,1.15
2022-09-27T05:10:15.252Z,4.63
2022-09-27T05:12:42.340Z,2.22
2022-09-27T05:15:09.971Z,1.27
2022-09-27T05:17:37.169Z,3.28
2022-09-27T05:20:05.346Z,2.45
2022-09-27T05:22:33.764Z,1.48
2022-09-27T05:25:00.990Z,2.22
2022-09-27T05:27:28.061Z,1.63
2022-09-27T05:29:55.154Z,1.70
2022-09-27T05:32:22.338Z,2.13
2022-09-27T05:34:49.401Z,2.25
2022-09-27T05:37:16.474Z,1.63
2022-09-27T05:39:44.940Z,1.52
2022-09-27T05:42:12.096Z,1.88
2022-09-27T05:44:39.175Z,1.95
2022-09-27T05:47:06.562Z,1.52
2022-09-27T05:49:33.793Z,2.88
2022-09-27T05:52:01.334Z,3.15
2022-09-27T05:54:28.428Z,2.15
2022-09-27T05:56:57.785Z,1.67
2022-09-27T05:59:25.219Z,2.47
2022-09-27T06:01:52.845Z,1.40
2022-09-27T06:04:20.507Z,1.80
2022-09-27T06:06:48.065Z,1.20
2022-09-27T06:09:16.650Z,3.00
2022-09-27T06:11:45.271Z,3.47
2022-09-27T06:14:14.098Z,1.10
2022-09-27T06:16:41.252Z,2.13
2022-09-27T06:19:08.402Z,1.52
2022-09-27T06:21:35.504Z,0.90
2022-09-27T06:24:02.893Z,1.73
2022-09-27T06:26:30.175Z,1.38
2022-09-27T06:28:57.247Z,1.70
2022-09-27T06:31:25.824Z,1.73
2022-09-27T06:33:52.916Z,1.40
2022-09-27T06:36:19.995Z,1.20
2022-09-27T06:38:47.153Z,3.83
2022-09-27T06:41:14.265Z,1.08
2022-09-27T06:43:41.634Z,0.70
2022-09-27T06:46:08.940Z,1.30
2022-09-27T06:48:37.525Z,1.50
2022-09-27T06:51:05.270Z,2.20
2022-09-27T06:53:32.393Z,2.38
2022-09-27T06:56:00.057Z,1.98
2022-09-27T06:58:27.494Z,1.27
2022-09-27T07:00:54.621Z,3.90
2022-09-27T07:03:23.309Z,1.67
2022-09-27T07:06:02.604Z,3.03
2022-09-27T07:08:29.921Z,1.73
2022-09-27T07:11:02.279Z,1.50
2022-09-27T07:13:29.790Z,1.55
2022-09-27T07:15:57.085Z,0.93
2022-09-27T07:18:24.348Z,3.75
2022-09-27T07:20:51.456Z,2.45
2022-09-27T07:23:20.152Z,1.30
2022-09-27T07:25:47.388Z,4.75
2022-09-27T07:28:20.976Z,2.42
2022-09-27T07:30:49.184Z,2.05
2022-09-27T07:33:16.495Z,2.53
2022-09-27T07:35:43.691Z,2.13
2022-09-27T07:38:12.064Z,1.65
2022-09-27T07:40:41.423Z,1.50
2022-09-27T07:43:08.645Z,1.42
2022-09-27T07:45:36.234Z,1.15
2022-09-27T07:48:05.281Z,2.30
2022-09-27T07:50:32.464Z,2.60
2022-09-27T07:52:59.567Z,2.05
2022-09-27T07:55:26.730Z,1.92
2022-09-27T07:58:02.684Z,1.77
2022-09-27T08:00:29.774Z,5.38
2022-09-27T08:02:56.862Z,1.85
2022-09-27T08:05:24.040Z,1.55
2022-09-27T08:07:55.268Z,3.22
2022-09-27T08:10:22.326Z,2.55
2022-09-27T08:12:49.390Z,2.75
2022-09-27T08:15:17.858Z,2.78
2022-09-27T08:17:44.951Z,1.20
2022-09-27T08:20:12.039Z,1.23
2022-09-27T08:22:40.867Z,1.60
2022-09-27T08:25:08.936Z,2.53
2022-09-27T08:27:36.012Z,3.67
2022-09-27T08:30:04.886Z,3.35
2022-09-27T08:32:33.332Z,4.47
2022-09-27T08:35:00.431Z,2.25
2022-09-27T08:37:27.610Z,0.98
2022-09-27T08:39:54.705Z,0.80
2022-09-27T08:42:32.218Z,1.13
2022-09-27T08:45:06.220Z,1.80
2022-09-27T08:47:38.783Z,1.73
2022-09-27T08:50:18.504Z,4.15
2022-09-27T08:52:51.384Z,2.25
2022-09-27T08:55:24.484Z,4.35
2022-09-27T08:57:55.988Z,1.33
2022-09-27T09:00:23.835Z,1.23
2022-09-27T09:02:52.363Z,2.05
2022-09-27T09:05:27.243Z,1.58
2022-09-27T09:08:16.032Z,2.35
2022-09-27T09:10:51.505Z,0.90
2022-09-27T09:13:34.651Z,1.83
2022-09-27T09:16:10.201Z,1.35
2022-09-27T09:18:56.175Z,1.10
2022-09-27T09:21:31.349Z,2.03
2022-09-27T09:24:11.591Z,1.70
2022-09-27T09:26:47.910Z,1.15
2022-09-27T09:29:27.601Z,1.33
2022-09-27T09:32:01.521Z,3.03
2022-09-27T09:34:36.698Z,2.00
2022-09-27T09:37:10.375Z,0.57
2022-09-27T09:39:45.122Z,2.20
2022-09-27T09:42:17.353Z,1.08
2022-09-27T09:44:52.508Z,2.97
2022-09-27T09:47:29.785Z,2.95
2022-09-27T09:50:01.954Z,2.65
2022-09-27T09:52:40.266Z,2.15
2022-09-27T09:55:19.034Z,2.25
2022-09-27T09:58:00.211Z,2.70
2022-09-27T10:00:27.335Z,1.20
2022-09-27T10:02:57.914Z,2.72
2022-09-27T10:05:27.987Z,4.20
2022-09-27T10:07:58.607Z,4.97
2022-09-27T10:10:25.785Z,2.95
2022-09-27T10:12:53.132Z,1.85
2022-09-27T10:15:22.875Z,2.70
2022-09-27T10:17:52.907Z,7.28
2022-09-27T10:20:31.299Z,3.75
2022-09-27T10:23:04.176Z,7.05
2022-09-27T10:25:47.006Z,4.43
2022-09-27T10:28:35.125Z,4.55
2022-09-27T10:31:04.434Z,3.03
2022-09-27T10:33:32.483Z,5.47
2022-09-27T10:36:01.652Z,2.70
2022-09-27T10:38:31.355Z,5.25
2022-09-27T10:41:15.596Z,5.53
2022-09-27T10:43:42.966Z,6.43
2022-09-27T10:46:16.039Z,4.40
2022-09-27T10:48:43.162Z,4.22
2022-09-27T10:51:24.849Z,3.25
2022-09-27T10:53:52.517Z,4.00
2022-09-27T10:56:24.726Z,4.43
2022-09-27T10:58:52.350Z,3.70
2022-09-27T11:01:20.159Z,3.35
2022-09-27T11:03:49.378Z,2.33
2022-09-27T11:06:29.137Z,3.70
2022-09-27T11:09:10.697Z,3.75
2022-09-27T11:11:37.816Z,4.65
2022-09-27T11:14:16.958Z,4.13
2022-09-27T11:16:54.124Z,3.08
2022-09-27T11:19:44.324Z,4.97
2022-09-27T11:22:27.280Z,23.90
2022-09-27T11:25:05.771Z,12.18
2022-09-27T11:27:44.871Z,6.78
2022-09-27T11:30:15.521Z,7.18
2022-09-27T11:33:14.487Z,9.70
2022-09-27T11:35:55.713Z,11.93
2022-09-27T11:38:51.725Z,10.43
2022-09-27T11:44:09.247Z,8.00
2022-09-27T11:49:46.361Z,6.50
2022-09-27T11:52:30.220Z,9.87
2022-09-27T11:55:14.257Z,9.77
2022-09-27T11:57:46.519Z,8.05
2022-09-27T12:00:20.521Z,5.68
2022-09-27T12:03:35.463Z,6.13
2022-09-27T12:06:12.105Z,6.03
2022-09-27T12:08:52.439Z,5.38
2022-09-27T12:11:25.240Z,4.93
2022-09-27T12:13:57.695Z,5.13
2022-09-27T12:16:27.300Z,5.60
2022-09-27T12:18:55.819Z,4.43
2022-09-27T12:21:25.079Z,6.75
2022-09-27T12:23:54.708Z,5.15
2022-09-27T12:26:26.292Z,5.70
2022-09-27T12:28:57.048Z,4.68
2022-09-27T12:31:30.880Z,4.28
2022-09-27T12:34:06.451Z,4.70
2022-09-27T12:36:38.680Z,6.93
2022-09-27T12:39:13.331Z,4.85
2022-09-27T12:41:47.933Z,4.90
2022-09-27T12:44:15.925Z,5.75
2022-09-27T12:46:59.785Z,4.40
2022-09-27T12:49:35.056Z,4.93
2022-09-27T12:52:05.455Z,7.28
2022-09-27T12:54:55.685Z,5.43
2022-09-27T12:57:38.265Z,5.45
2022-09-27T13:00:10.931Z,3.55
2022-09-27T13:03:17.536Z,4.15
2022-09-27T13:06:13.001Z,5.47
2022-09-27T13:09:01.769Z,7.63
2022-09-27T13:11:42.933Z,3.67
2022-09-27T13:14:17.861Z,4.88
2022-09-27T13:16:46.594Z,3.00
2022-09-27T13:19:39.559Z,4.25
2022-09-27T13:22:08.114Z,4.13
2022-09-27T13:24:49.001Z,3.85
2022-09-27T13:27:38.717Z,3.38
2022-09-27T13:30:45.350Z,5.28
2022-09-27T13:33:44.322Z,3.60
2022-09-27T13:36:30.851Z,3.00
2022-09-27T13:39:20.382Z,4.13
2022-09-27T13:42:04.583Z,4.30
2022-09-27T13:44:43.417Z,4.95
2022-09-27T13:47:25.680Z,4.20
2022-09-27T13:49:59.516Z,5.68
2022-09-27T13:52:31.181Z,4.97
2022-09-27T13:55:00.616Z,3.92
2022-09-27T13:57:51.368Z,3.95
2022-09-27T14:00:21.385Z,2.55
2022-09-27T14:03:15.180Z,5.60
2022-09-27T14:05:50.585Z,4.73
2022-09-27T14:08:25.563Z,2.90
2022-09-27T14:10:54.133Z,2.42
2022-09-27T14:13:24.165Z,3.03
2022-09-27T14:15:55.915Z,3.78
2022-09-27T14:18:23.280Z,2.42
2022-09-27T14:20:52.883Z,3.28
2022-09-27T14:23:22.786Z,2.90
2022-09-27T14:25:51.652Z,2.70
2022-09-27T14:28:21.160Z,4.03
2022-09-27T14:30:48.382Z,2.17
2022-09-27T14:33:29.236Z,2.92
2022-09-27T14:35:57.821Z,2.42
2022-09-27T14:38:39.446Z,3.50
2022-09-27T14:41:08.281Z,2.72
2022-09-27T14:43:36.625Z,3.22
2022-09-27T14:46:05.330Z,2.53
2022-09-27T14:48:34.790Z,2.92
2022-09-27T14:51:17.277Z,3.20
2022-09-27T14:53:47.313Z,2.60
2022-09-27T14:56:16.699Z,1.83
2022-09-27T14:58:47.769Z,3.47
2022-09-27T15:01:17.066Z,2.67
2022-09-27T15:03:45.642Z,4.90
2022-09-27T15:06:14.980Z,2.80
2022-09-27T15:08:43.178Z,3.17
2022-09-27T15:11:10.950Z,3.92
2022-09-27T15:13:39.983Z,1.85
2022-09-27T15:16:10.310Z,3.50
2022-09-27T15:18:42.393Z,2.95
2022-09-27T15:21:11.196Z,1.92
2022-09-27T15:23:41.104Z,3.30
2022-09-27T15:26:11.810Z,3.40
2022-09-27T15:28:43.383Z,3.67
2022-09-27T15:31:11.501Z,3.25
2022-09-27T15:33:39.107Z,3.67
2022-09-27T15:36:08.543Z,2.05
2022-09-27T15:38:37.351Z,2.60
2022-09-27T15:41:11.800Z,1.50
2022-09-27T15:43:42.460Z,1.00
2022-09-27T15:46:34.609Z,3.42
2022-09-27T15:49:22.842Z,1.25
2022-09-27T15:51:51.926Z,1.98
2022-09-27T15:54:19.661Z,2.33
2022-09-27T15:56:52.230Z,2.13
2022-09-27T15:59:24.659Z,3.08
2022-09-27T16:01:56.233Z,3.45
2022-09-27T16:04:23.385Z,2.35
2022-09-27T16:06:50.826Z,1.73
2022-09-27T16:09:19.280Z,2.67
2022-09-27T16:11:48.672Z,2.90
2022-09-27T16:14:16.697Z,2.28
2022-09-27T16:16:45.290Z,1.60
2022-09-27T16:19:12.674Z,2.83
2022-09-27T16:21:39.860Z,3.10
2022-09-27T16:24:07.036Z,2.25
2022-09-27T16:26:34.221Z,1.85
2022-09-27T16:29:02.668Z,2.63
2022-09-27T16:31:29.845Z,1.50
2022-09-27T16:33:56.964Z,1.88
2022-09-27T16:36:24.061Z,1.75
2022-09-27T16:38:51.502Z,3.35
2022-09-27T16:41:19.529Z,1.23
2022-09-27T16:43:46.911Z,1.90
2022-09-27T16:46:16.516Z,2.13
2022-09-27T16:48:43.640Z,5.68
2022-09-27T16:51:13.157Z,3.13
2022-09-27T16:53:40.438Z,3.22
2022-09-27T16:56:07.552Z,4.93
2022-09-27T16:58:34.637Z,3.17
2022-09-27T17:01:01.873Z,2.45
2022-09-27T17:03:30.320Z,4.70
2022-09-27T17:06:01.446Z,5.22
2022-09-27T17:08:28.539Z,4.45
2022-09-27T17:10:55.753Z,3.28
2022-09-27T17:13:22.982Z,4.78
2022-09-27T17:15:50.122Z,3.00
2022-09-27T17:18:17.441Z,7.53
2022-09-27T17:20:45.880Z,2.67
2022-09-27T17:23:13.007Z,2.63
2022-09-27T17:25:40.207Z,4.15
2022-09-27T17:28:07.406Z,5.22
2022-09-27T17:30:34.509Z,4.65
2022-09-27T17:33:01.576Z,3.85
2022-09-27T17:35:28.653Z,4.47
2022-09-27T17:37:57.112Z,3.22
2022-09-27T17:40:24.218Z,7.25
2022-09-27T17:42:51.313Z,5.10
2022-09-27T17:45:18.413Z,4.43
2022-09-27T17:47:45.498Z,3.90
2022-09-27T17:50:12.586Z,4.55
2022-09-27T17:52:39.738Z,4.43
2022-09-27T17:55:08.819Z,5.45
2022-09-27T17:57:35.916Z,2.08
2022-09-27T18:00:04.743Z,4.65
2022-09-27T18:02:31.913Z,3.17
2022-09-27T18:04:59.098Z,3.10
2022-09-27T18:07:26.318Z,3.03
2022-09-27T18:09:53.396Z,3.42
2022-09-27T18:12:21.820Z,3.80
2022-09-27T18:14:48.922Z,3.45
2022-09-27T18:17:16.064Z,3.10
2022-09-27T18:19:43.217Z,5.03
2022-09-27T18:22:10.321Z,4.75
2022-09-27T18:24:37.404Z,3.80
2022-09-27T18:27:04.480Z,4.90
2022-09-27T18:29:32.954Z,3.33
2022-09-27T18:32:00.057Z,4.85
2022-09-27T18:34:27.137Z,3.92
2022-09-27T18:36:54.367Z,3.80
2022-09-27T18:39:21.451Z,4.07
2022-09-27T18:41:48.667Z,4.43
2022-09-27T18:44:17.380Z,3.83
2022-09-27T18:46:46.285Z,6.07
2022-09-27T18:49:14.448Z,6.57
2022-09-27T18:51:43.152Z,4.85
2022-09-27T18:54:14.768Z,6.68
2022-09-27T18:56:41.935Z,4.03
2022-09-27T18:59:10.040Z,2.63
2022-09-27T19:01:38.954Z,3.63
2022-09-27T19:04:08.344Z,6.22
2022-09-27T19:06:36.727Z,3.90
2022-09-27T19:09:04.809Z,4.20
2022-09-27T19:11:32.339Z,5.50
2022-09-27T19:13:59.544Z,5.50
2022-09-27T19:16:28.578Z,2.80
2022-09-27T19:18:55.789Z,3.95
2022-09-27T19:21:26.120Z,6.00
2022-09-27T19:23:53.468Z,2.83
2022-09-27T19:26:22.479Z,5.30
2022-09-27T19:28:50.331Z,3.65
2022-09-27T19:31:19.261Z,2.88
2022-09-27T19:33:47.054Z,2.80
2022-09-27T19:36:16.216Z,2.50
2022-09-27T19:38:45.224Z,3.28
2022-09-27T19:41:13.673Z,3.17
2022-09-27T19:43:41.592Z,3.13
2022-09-27T19:46:11.699Z,4.82
2022-09-27T19:48:38.854Z,3.03
2022-09-27T19:51:06.832Z,2.55
2022-09-27T19:53:34.698Z,4.13
2022-09-27T19:56:05.724Z,4.72
2022-09-27T19:58:34.944Z,3.33
2022-09-27T20:01:04.083Z,2.67
2022-09-27T20:03:31.375Z,3.35
2022-09-27T20:05:59.818Z,5.72
2022-09-27T20:08:27.444Z,2.67
2022-09-27T20:10:56.417Z,2.58
2022-09-27T20:13:26.793Z,4.20
2022-09-27T20:16:01.139Z,3.08
2022-09-27T20:18:28.632Z,2.33
2022-09-27T20:20:59.654Z,2.58
2022-09-27T20:23:26.969Z,3.00
2022-09-27T20:25:59.463Z,3.78
2022-09-27T20:28:28.086Z,2.70
2022-09-27T20:30:56.677Z,3.70
2022-09-27T20:33:23.815Z,2.30
2022-09-27T20:35:51.612Z,3.50
2022-09-27T20:38:18.790Z,2.30
2022-09-27T20:40:52.762Z,4.47
2022-09-27T20:45:48.012Z,4.80
2022-09-27T20:48:15.110Z,2.67
2022-09-27T20:50:42.225Z,3.25
2022-09-27T20:53:09.373Z,3.60
2022-09-27T20:55:36.764Z,2.28
2022-09-27T20:58:03.876Z,2.30
2022-09-27T21:00:30.978Z,2.58
2022-09-27T21:02:59.445Z,2.28
2022-09-27T21:05:26.508Z,2.78
2022-09-27T21:07:53.845Z,5.30
2022-09-27T21:10:20.968Z,4.45
2022-09-27T21:12:48.073Z,2.03
2022-09-27T21:15:15.277Z,3.55
2022-09-27T21:17:42.509Z,2.40
2022-09-27T21:20:11.095Z,2.60
2022-09-27T21:22:38.229Z,2.75
2022-09-27T21:25:06.033Z,2.20
2022-09-27T21:27:33.276Z,2.72
2022-09-27T21:30:00.381Z,2.97
2022-09-27T21:32:27.582Z,2.20
2022-09-27T21:34:54.635Z,2.42
2022-09-27T21:37:23.216Z,2.95
2022-09-27T21:39:50.332Z,2.15
2022-09-27T21:42:17.574Z,2.53
2022-09-27T21:44:44.930Z,2.55
2022-09-27T21:47:12.969Z,4.05
2022-09-27T21:49:40.193Z,2.20
2022-09-27T21:52:07.292Z,2.72
2022-09-27T21:54:35.734Z,2.63
2022-09-27T21:57:02.930Z,2.40
2022-09-27T21:59:30.016Z,2.65
2022-09-27T22:01:57.143Z,1.58
2022-09-27T22:04:24.223Z,2.80
2022-09-27T22:06:51.314Z,2.58
2022-09-27T22:09:18.603Z,3.65
2022-09-27T22:11:47.246Z,1.55
2022-09-27T22:14:15.233Z,2.38
2022-09-27T22:16:42.330Z,2.08
2022-09-27T22:19:11.076Z,2.00
2022-09-27T22:21:39.211Z,2.47
2022-09-27T22:24:10.532Z,3.35
2022-09-27T22:26:39.564Z,2.33
2022-09-27T22:29:08.395Z,1.90
2022-09-27T22:31:36.092Z,2.45
2022-09-27T22:34:05.327Z,2.20
2022-09-27T22:36:34.869Z,2.28
2022-09-27T22:39:02.697Z,2.42
2022-09-27T22:41:29.848Z,2.17
2022-09-27T22:43:57.053Z,2.25
2022-09-27T22:46:25.630Z,2.47
2022-09-27T22:48:52.772Z,1.85
2022-09-27T22:51:20.371Z,2.47
2022-09-27T22:53:47.718Z,1.50
2022-09-27T22:56:16.829Z,2.10
2022-09-27T22:58:44.448Z,2.83
2022-09-27T23:01:14.807Z,2.30
2022-09-27T23:03:43.977Z,1.63
2022-09-27T23:06:11.788Z,1.40
2022-09-27T23:08:39.281Z,2.53
2022-09-27T23:11:08.413Z,1.70
2022-09-27T23:13:37.448Z,3.40
2022-09-27T23:16:06.460Z,1.45
2022-09-27T23:18:33.869Z,2.20
2022-09-27T23:21:04.636Z,2.45
2022-09-27T23:23:31.890Z,2.20
2022-09-27T23:26:00.689Z,2.47
2022-09-27T23:28:28.530Z,1.80
2022-09-27T23:30:55.775Z,1.88
2022-09-27T23:33:22.952Z,2.05
2022-09-27T23:35:50.036Z,2.38
2022-09-27T23:38:18.484Z,1.67
2022-09-27T23:40:45.681Z,2.22
2022-09-27T23:43:12.836Z,1.75
2022-09-27T23:45:39.959Z,1.90
2022-09-27T23:48:07.040Z,2.38
2022-09-27T23:50:34.119Z,1.70
2022-09-27T23:53:01.230Z,2.28
2022-09-27T23:55:29.705Z,1.58
2022-09-27T23:57:56.800Z,2.72
